sensor_id;sensor_type;location;lat;lon;timestamp;P1;durP1;ratioP1;P2;durP2;ratioP2
76127;SDS011;64873;50.102;14.434;2024-01-25T00:00:01;12.25;;;1.73;;
76127;SDS011;64873;50.102;14.434;2024-01-25T00:02:27;9.38;;;2.40;;
76127;SDS011;64873;50.102;14.434;2024-01-25T00:04:52;10.27;;;2.30;;
76127;SDS011;64873;50.102;14.434;2024-01-25T00:07:18;15.07;;;2.55;;
76127;SDS011;64873;50.102;14.434;2024-01-25T00:09:43;12.68;;;2.17;;
76127;SDS011;64873;50.102;14.434;2024-01-25T00:12:08;11.00;;;2.45;;
76127;SDS011;64873;50.102;14.434;2024-01-25T00:14:34;10.73;;;2.03;;
76127;SDS011;64873;50.102;14.434;2024-01-25T00:16:59;11.57;;;2.03;;
76127;SDS011;64873;50.102;14.434;2024-01-25T00:19:25;8.10;;;1.90;;
76127;SDS011;64873;50.102;14.434;2024-01-25T00:21:50;12.98;;;1.75;;
76127;SDS011;64873;50.102;14.434;2024-01-25T00:24:15;11.10;;;2.15;;
76127;SDS011;64873;50.102;14.434;2024-01-25T00:26:41;8.88;;;1.65;;
76127;SDS011;64873;50.102;14.434;2024-01-25T00:29:06;9.65;;;2.42;;
76127;SDS011;64873;50.102;14.434;2024-01-25T00:31:32;10.98;;;2.50;;
76127;SDS011;64873;50.102;14.434;2024-01-25T00:33:57;7.15;;;2.28;;
76127;SDS011;64873;50.102;14.434;2024-01-25T00:36:23;5.47;;;1.58;;
76127;SDS011;64873;50.102;14.434;2024-01-25T00:38:49;8.05;;;1.70;;
76127;SDS011;64873;50.102;14.434;2024-01-25T00:41:17;7.50;;;1.88;;
76127;SDS011;64873;50.102;14.434;2024-01-25T00:43:44;9.23;;;1.90;;
76127;SDS011;64873;50.102;14.434;2024-01-25T00:46:10;7.38;;;1.77;;
76127;SDS011;64873;50.102;14.434;2024-01-25T00:48:37;12.73;;;2.60;;
76127;SDS011;64873;50.102;14.434;2024-01-25T00:51:02;10.65;;;2.50;;
76127;SDS011;64873;50.102;14.434;2024-01-25T00:53:32;6.97;;;1.52;;
76127;SDS011;64873;50.102;14.434;2024-01-25T00:55:58;11.05;;;2.13;;
76127;SDS011;64873;50.102;14.434;2024-01-25T00:58:24;7.15;;;2.03;;
76127;SDS011;64873;50.102;14.434;2024-01-25T01:00:50;11.07;;;1.83;;
76127;SDS011;64873;50.102;14.434;2024-01-25T01:03:16;8.23;;;2.15;;
76127;SDS011;64873;50.102;14.434;2024-01-25T01:05:43;7.18;;;1.38;;
76127;SDS011;64873;50.102;14.434;2024-01-25T01:08:09;7.60;;;1.80;;
76127;SDS011;64873;50.102;14.434;2024-01-25T01:10:35;8.98;;;1.85;;
76127;SDS011;64873;50.102;14.434;2024-01-25T01:13:01;9.07;;;2.30;;
76127;SDS011;64873;50.102;14.434;2024-01-25T01:15:26;7.47;;;1.92;;
76127;SDS011;64873;50.102;14.434;2024-01-25T01:17:51;9.45;;;2.65;;
76127;SDS011;64873;50.102;14.434;2024-01-25T01:20:17;13.38;;;1.98;;
76127;SDS011;64873;50.102;14.434;2024-01-25T01:22:42;11.18;;;2.17;;
76127;SDS011;64873;50.102;14.434;2024-01-25T01:25:08;8.82;;;1.80;;
76127;SDS011;64873;50.102;14.434;2024-01-25T01:27:33;17.20;;;2.30;;
76127;SDS011;64873;50.102;14.434;2024-01-25T01:29:58;8.15;;;1.65;;
76127;SDS011;64873;50.102;14.434;2024-01-25T01:32:24;9.48;;;2.10;;
76127;SDS011;64873;50.102;14.434;2024-01-25T01:34:49;4.50;;;1.27;;
76127;SDS011;64873;50.102;14.434;2024-01-25T01:37:14;13.63;;;1.92;;
76127;SDS011;64873;50.102;14.434;2024-01-25T01:39:40;10.18;;;2.10;;
76127;SDS011;64873;50.102;14.434;2024-01-25T01:42:05;10.63;;;1.98;;
76127;SDS011;64873;50.102;14.434;2024-01-25T01:44:31;8.25;;;2.10;;
76127;SDS011;64873;50.102;14.434;2024-01-25T01:46:56;7.85;;;1.73;;
76127;SDS011;64873;50.102;14.434;2024-01-25T01:49:22;7.75;;;2.05;;
76127;SDS011;64873;50.102;14.434;2024-01-25T01:51:47;10.55;;;1.95;;
76127;SDS011;64873;50.102;14.434;2024-01-25T01:54:13;13.88;;;2.13;;
76127;SDS011;64873;50.102;14.434;2024-01-25T01:56:38;14.32;;;2.47;;
76127;SDS011;64873;50.102;14.434;2024-01-25T01:59:08;9.63;;;2.88;;
76127;SDS011;64873;50.102;14.434;2024-01-25T02:01:38;9.50;;;2.03;;
76127;SDS011;64873;50.102;14.434;2024-01-25T02:04:06;14.82;;;2.47;;
76127;SDS011;64873;50.102;14.434;2024-01-25T02:06:32;12.40;;;2.20;;
76127;SDS011;64873;50.102;14.434;2024-01-25T02:08:57;14.57;;;2.40;;
76127;SDS011;64873;50.102;14.434;2024-01-25T02:11:26;10.90;;;1.98;;
76127;SDS011;64873;50.102;14.434;2024-01-25T02:13:52;11.00;;;2.20;;
76127;SDS011;64873;50.102;14.434;2024-01-25T02:16:17;6.80;;;2.20;;
76127;SDS011;64873;50.102;14.434;2024-01-25T02:18:44;7.72;;;1.65;;
76127;SDS011;64873;50.102;14.434;2024-01-25T02:21:10;8.88;;;1.60;;
76127;SDS011;64873;50.102;14.434;2024-01-25T02:23:36;11.65;;;1.92;;
76127;SDS011;64873;50.102;14.434;2024-01-25T02:26:01;7.20;;;1.88;;
76127;SDS011;64873;50.102;14.434;2024-01-25T02:28:27;10.85;;;2.08;;
76127;SDS011;64873;50.102;14.434;2024-01-25T02:30:52;8.25;;;1.50;;
76127;SDS011;64873;50.102;14.434;2024-01-25T02:33:18;6.72;;;1.58;;
76127;SDS011;64873;50.102;14.434;2024-01-25T02:35:43;8.85;;;2.28;;
76127;SDS011;64873;50.102;14.434;2024-01-25T02:38:09;10.48;;;2.47;;
76127;SDS011;64873;50.102;14.434;2024-01-25T02:40:34;11.43;;;2.92;;
76127;SDS011;64873;50.102;14.434;2024-01-25T02:42:59;11.48;;;2.30;;
76127;SDS011;64873;50.102;14.434;2024-01-25T02:45:25;10.30;;;2.33;;
76127;SDS011;64873;50.102;14.434;2024-01-25T02:47:50;12.93;;;1.85;;
76127;SDS011;64873;50.102;14.434;2024-01-25T02:50:16;9.05;;;2.15;;
76127;SDS011;64873;50.102;14.434;2024-01-25T02:52:41;14.40;;;1.90;;
76127;SDS011;64873;50.102;14.434;2024-01-25T02:55:07;14.65;;;2.38;;
76127;SDS011;64873;50.102;14.434;2024-01-25T02:57:32;9.43;;;1.83;;
76127;SDS011;64873;50.102;14.434;2024-01-25T02:59:58;7.07;;;1.55;;
76127;SDS011;64873;50.102;14.434;2024-01-25T03:02:24;11.60;;;2.50;;
76127;SDS011;64873;50.102;14.434;2024-01-25T03:04:49;7.15;;;1.55;;
76127;SDS011;64873;50.102;14.434;2024-01-25T03:07:15;11.07;;;1.63;;
76127;SDS011;64873;50.102;14.434;2024-01-25T03:09:40;11.73;;;2.50;;
76127;SDS011;64873;50.102;14.434;2024-01-25T03:12:06;10.23;;;1.65;;
76127;SDS011;64873;50.102;14.434;2024-01-25T03:14:32;4.75;;;1.42;;
76127;SDS011;64873;50.102;14.434;2024-01-25T03:16:57;8.10;;;1.90;;
76127;SDS011;64873;50.102;14.434;2024-01-25T03:19:24;9.15;;;1.85;;
76127;SDS011;64873;50.102;14.434;2024-01-25T03:21:51;8.82;;;1.90;;
76127;SDS011;64873;50.102;14.434;2024-01-25T03:24:16;7.05;;;1.58;;
76127;SDS011;64873;50.102;14.434;2024-01-25T03:26:42;5.38;;;1.63;;
76127;SDS011;64873;50.102;14.434;2024-01-25T03:29:07;10.13;;;1.30;;
76127;SDS011;64873;50.102;14.434;2024-01-25T03:31:32;9.68;;;1.77;;
76127;SDS011;64873;50.102;14.434;2024-01-25T03:33:58;15.50;;;1.92;;
76127;SDS011;64873;50.102;14.434;2024-01-25T03:36:24;4.47;;;1.17;;
76127;SDS011;64873;50.102;14.434;2024-01-25T03:38:49;8.48;;;1.85;;
76127;SDS011;64873;50.102;14.434;2024-01-25T03:41:14;9.20;;;2.20;;
76127;SDS011;64873;50.102;14.434;2024-01-25T03:43:40;7.15;;;1.75;;
76127;SDS011;64873;50.102;14.434;2024-01-25T03:46:05;10.38;;;1.75;;
76127;SDS011;64873;50.102;14.434;2024-01-25T03:48:31;13.07;;;2.70;;
76127;SDS011;64873;50.102;14.434;2024-01-25T03:50:57;13.40;;;2.42;;
76127;SDS011;64873;50.102;14.434;2024-01-25T03:53:22;10.95;;;2.20;;
76127;SDS011;64873;50.102;14.434;2024-01-25T03:55:48;11.45;;;1.65;;
76127;SDS011;64873;50.102;14.434;2024-01-25T03:58:14;8.63;;;2.00;;
76127;SDS011;64873;50.102;14.434;2024-01-25T04:00:40;18.55;;;2.72;;
76127;SDS011;64873;50.102;14.434;2024-01-25T04:03:05;10.73;;;3.20;;
76127;SDS011;64873;50.102;14.434;2024-01-25T04:05:31;9.30;;;2.40;;
76127;SDS011;64873;50.102;14.434;2024-01-25T04:07:56;9.45;;;2.38;;
76127;SDS011;64873;50.102;14.434;2024-01-25T04:10:21;8.38;;;1.70;;
76127;SDS011;64873;50.102;14.434;2024-01-25T04:12:47;9.40;;;2.15;;
76127;SDS011;64873;50.102;14.434;2024-01-25T04:15:12;11.15;;;1.90;;
76127;SDS011;64873;50.102;14.434;2024-01-25T04:17:38;9.05;;;1.92;;
76127;SDS011;64873;50.102;14.434;2024-01-25T04:20:03;10.60;;;1.75;;
76127;SDS011;64873;50.102;14.434;2024-01-25T04:22:29;12.00;;;2.05;;
76127;SDS011;64873;50.102;14.434;2024-01-25T04:24:54;8.90;;;2.33;;
76127;SDS011;64873;50.102;14.434;2024-01-25T04:27:20;10.70;;;2.10;;
76127;SDS011;64873;50.102;14.434;2024-01-25T04:29:45;14.20;;;2.60;;
76127;SDS011;64873;50.102;14.434;2024-01-25T04:32:12;10.80;;;2.25;;
76127;SDS011;64873;50.102;14.434;2024-01-25T04:34:37;11.40;;;2.40;;
76127;SDS011;64873;50.102;14.434;2024-01-25T04:37:03;8.10;;;2.33;;
76127;SDS011;64873;50.102;14.434;2024-01-25T04:39:28;9.85;;;2.08;;
76127;SDS011;64873;50.102;14.434;2024-01-25T04:41:54;11.93;;;2.28;;
76127;SDS011;64873;50.102;14.434;2024-01-25T04:44:19;11.55;;;2.40;;
76127;SDS011;64873;50.102;14.434;2024-01-25T04:46:45;11.65;;;2.63;;
76127;SDS011;64873;50.102;14.434;2024-01-25T04:49:10;9.07;;;1.75;;
76127;SDS011;64873;50.102;14.434;2024-01-25T04:51:35;12.73;;;1.80;;
76127;SDS011;64873;50.102;14.434;2024-01-25T04:54:01;7.97;;;1.92;;
76127;SDS011;64873;50.102;14.434;2024-01-25T04:56:27;11.10;;;1.90;;
76127;SDS011;64873;50.102;14.434;2024-01-25T04:58:53;14.88;;;2.50;;
76127;SDS011;64873;50.102;14.434;2024-01-25T05:01:18;10.98;;;1.83;;
76127;SDS011;64873;50.102;14.434;2024-01-25T05:03:44;9.38;;;1.95;;
76127;SDS011;64873;50.102;14.434;2024-01-25T05:06:09;10.45;;;1.98;;
76127;SDS011;64873;50.102;14.434;2024-01-25T05:08:34;12.77;;;2.22;;
76127;SDS011;64873;50.102;14.434;2024-01-25T05:11:00;6.47;;;1.98;;
76127;SDS011;64873;50.102;14.434;2024-01-25T05:13:25;18.60;;;2.63;;
76127;SDS011;64873;50.102;14.434;2024-01-25T05:15:51;13.93;;;2.58;;
76127;SDS011;64873;50.102;14.434;2024-01-25T05:18:16;10.73;;;2.00;;
76127;SDS011;64873;50.102;14.434;2024-01-25T05:20:41;7.70;;;1.63;;
76127;SDS011;64873;50.102;14.434;2024-01-25T05:23:07;16.90;;;2.63;;
76127;SDS011;64873;50.102;14.434;2024-01-25T05:25:32;10.43;;;1.92;;
76127;SDS011;64873;50.102;14.434;2024-01-25T05:27:58;8.65;;;1.65;;
76127;SDS011;64873;50.102;14.434;2024-01-25T05:30:24;12.50;;;2.20;;
76127;SDS011;64873;50.102;14.434;2024-01-25T05:32:50;11.15;;;1.85;;
76127;SDS011;64873;50.102;14.434;2024-01-25T05:35:16;14.15;;;2.13;;
76127;SDS011;64873;50.102;14.434;2024-01-25T05:37:42;11.13;;;2.15;;
76127;SDS011;64873;50.102;14.434;2024-01-25T05:40:08;7.18;;;2.00;;
76127;SDS011;64873;50.102;14.434;2024-01-25T05:42:36;8.55;;;1.67;;
76127;SDS011;64873;50.102;14.434;2024-01-25T05:45:02;6.82;;;1.83;;
76127;SDS011;64873;50.102;14.434;2024-01-25T05:47:28;13.32;;;1.95;;
76127;SDS011;64873;50.102;14.434;2024-01-25T05:49:54;8.63;;;1.95;;
76127;SDS011;64873;50.102;14.434;2024-01-25T05:52:20;11.00;;;1.38;;
76127;SDS011;64873;50.102;14.434;2024-01-25T05:54:46;8.35;;;1.88;;
76127;SDS011;64873;50.102;14.434;2024-01-25T05:57:11;12.75;;;2.13;;
76127;SDS011;64873;50.102;14.434;2024-01-25T05:59:37;8.85;;;1.52;;
76127;SDS011;64873;50.102;14.434;2024-01-25T06:02:03;12.10;;;2.22;;
76127;SDS011;64873;50.102;14.434;2024-01-25T06:04:28;13.02;;;2.28;;
76127;SDS011;64873;50.102;14.434;2024-01-25T06:06:54;7.75;;;2.15;;
76127;SDS011;64873;50.102;14.434;2024-01-25T06:09:19;10.75;;;2.25;;
76127;SDS011;64873;50.102;14.434;2024-01-25T06:11:45;12.40;;;2.88;;
76127;SDS011;64873;50.102;14.434;2024-01-25T06:14:11;9.88;;;2.05;;
76127;SDS011;64873;50.102;14.434;2024-01-25T06:16:36;14.88;;;2.15;;
76127;SDS011;64873;50.102;14.434;2024-01-25T06:19:03;14.52;;;2.63;;
76127;SDS011;64873;50.102;14.434;2024-01-25T06:21:28;11.43;;;2.50;;
76127;SDS011;64873;50.102;14.434;2024-01-25T06:23:54;7.60;;;1.75;;
76127;SDS011;64873;50.102;14.434;2024-01-25T06:26:20;8.18;;;1.80;;
76127;SDS011;64873;50.102;14.434;2024-01-25T06:28:45;20.00;;;2.20;;
76127;SDS011;64873;50.102;14.434;2024-01-25T06:31:10;8.55;;;1.88;;
76127;SDS011;64873;50.102;14.434;2024-01-25T06:33:36;6.65;;;1.55;;
76127;SDS011;64873;50.102;14.434;2024-01-25T06:36:01;6.22;;;1.75;;
76127;SDS011;64873;50.102;14.434;2024-01-25T06:38:27;7.40;;;1.70;;
76127;SDS011;64873;50.102;14.434;2024-01-25T06:40:55;8.15;;;2.28;;
76127;SDS011;64873;50.102;14.434;2024-01-25T06:43:20;4.18;;;1.35;;
76127;SDS011;64873;50.102;14.434;2024-01-25T06:45:46;12.60;;;2.08;;
76127;SDS011;64873;50.102;14.434;2024-01-25T06:48:11;9.80;;;2.70;;
76127;SDS011;64873;50.102;14.434;2024-01-25T06:50:37;6.90;;;1.77;;
76127;SDS011;64873;50.102;14.434;2024-01-25T06:53:03;8.95;;;2.10;;
76127;SDS011;64873;50.102;14.434;2024-01-25T06:55:29;14.65;;;2.17;;
76127;SDS011;64873;50.102;14.434;2024-01-25T06:57:54;5.07;;;0.95;;
76127;SDS011;64873;50.102;14.434;2024-01-25T07:00:20;11.15;;;1.85;;
76127;SDS011;64873;50.102;14.434;2024-01-25T07:02:46;12.45;;;3.13;;
76127;SDS011;64873;50.102;14.434;2024-01-25T07:05:12;14.75;;;1.70;;
76127;SDS011;64873;50.102;14.434;2024-01-25T07:07:37;8.80;;;1.95;;
76127;SDS011;64873;50.102;14.434;2024-01-25T07:10:04;9.15;;;1.85;;
76127;SDS011;64873;50.102;14.434;2024-01-25T07:12:30;11.77;;;2.25;;
76127;SDS011;64873;50.102;14.434;2024-01-25T07:14:56;11.98;;;1.95;;
76127;SDS011;64873;50.102;14.434;2024-01-25T07:17:21;6.85;;;1.85;;
76127;SDS011;64873;50.102;14.434;2024-01-25T07:19:46;9.68;;;1.63;;
76127;SDS011;64873;50.102;14.434;2024-01-25T07:22:12;8.02;;;1.55;;
76127;SDS011;64873;50.102;14.434;2024-01-25T07:24:39;8.90;;;1.17;;
76127;SDS011;64873;50.102;14.434;2024-01-25T07:27:05;6.82;;;1.40;;
76127;SDS011;64873;50.102;14.434;2024-01-25T07:29:30;11.82;;;1.73;;
76127;SDS011;64873;50.102;14.434;2024-01-25T07:31:56;7.72;;;1.88;;
76127;SDS011;64873;50.102;14.434;2024-01-25T07:34:21;9.13;;;1.90;;
76127;SDS011;64873;50.102;14.434;2024-01-25T07:36:47;3.75;;;0.98;;
76127;SDS011;64873;50.102;14.434;2024-01-25T07:39:12;8.43;;;1.75;;
76127;SDS011;64873;50.102;14.434;2024-01-25T07:41:38;5.97;;;1.52;;
76127;SDS011;64873;50.102;14.434;2024-01-25T07:44:03;9.55;;;1.65;;
76127;SDS011;64873;50.102;14.434;2024-01-25T07:46:28;8.00;;;1.90;;
76127;SDS011;64873;50.102;14.434;2024-01-25T07:48:54;8.10;;;1.75;;
76127;SDS011;64873;50.102;14.434;2024-01-25T07:51:20;8.63;;;1.35;;
76127;SDS011;64873;50.102;14.434;2024-01-25T07:53:45;8.45;;;2.10;;
76127;SDS011;64873;50.102;14.434;2024-01-25T07:56:11;18.50;;;2.75;;
76127;SDS011;64873;50.102;14.434;2024-01-25T07:58:36;3.55;;;0.95;;
76127;SDS011;64873;50.102;14.434;2024-01-25T08:01:05;10.27;;;1.90;;
76127;SDS011;64873;50.102;14.434;2024-01-25T08:03:31;9.73;;;1.40;;
76127;SDS011;64873;50.102;14.434;2024-01-25T08:05:58;11.35;;;1.70;;
76127;SDS011;64873;50.102;14.434;2024-01-25T08:08:24;5.80;;;1.13;;
76127;SDS011;64873;50.102;14.434;2024-01-25T08:10:49;3.22;;;1.10;;
76127;SDS011;64873;50.102;14.434;2024-01-25T08:13:15;8.40;;;1.58;;
76127;SDS011;64873;50.102;14.434;2024-01-25T08:15:40;14.52;;;2.08;;
76127;SDS011;64873;50.102;14.434;2024-01-25T08:18:05;7.43;;;1.73;;
76127;SDS011;64873;50.102;14.434;2024-01-25T08:20:31;7.93;;;1.75;;
76127;SDS011;64873;50.102;14.434;2024-01-25T08:22:57;10.20;;;1.83;;
76127;SDS011;64873;50.102;14.434;2024-01-25T08:25:22;14.05;;;1.77;;
76127;SDS011;64873;50.102;14.434;2024-01-25T08:27:48;3.55;;;0.85;;
76127;SDS011;64873;50.102;14.434;2024-01-25T08:30:14;7.97;;;2.60;;
76127;SDS011;64873;50.102;14.434;2024-01-25T08:32:39;2.35;;;0.90;;
76127;SDS011;64873;50.102;14.434;2024-01-25T08:35:05;7.75;;;1.77;;
76127;SDS011;64873;50.102;14.434;2024-01-25T08:37:31;9.52;;;1.95;;
76127;SDS011;64873;50.102;14.434;2024-01-25T08:39:56;8.15;;;1.58;;
76127;SDS011;64873;50.102;14.434;2024-01-25T08:42:21;4.20;;;1.10;;
76127;SDS011;64873;50.102;14.434;2024-01-25T08:44:47;8.15;;;1.52;;
76127;SDS011;64873;50.102;14.434;2024-01-25T08:47:18;11.93;;;2.20;;
76127;SDS011;64873;50.102;14.434;2024-01-25T08:49:43;5.85;;;1.65;;
76127;SDS011;64873;50.102;14.434;2024-01-25T08:52:09;6.60;;;1.38;;
76127;SDS011;64873;50.102;14.434;2024-01-25T08:54:34;7.38;;;1.48;;
76127;SDS011;64873;50.102;14.434;2024-01-25T08:57:02;7.50;;;1.38;;
76127;SDS011;64873;50.102;14.434;2024-01-25T08:59:30;6.55;;;1.17;;
76127;SDS011;64873;50.102;14.434;2024-01-25T09:01:58;4.32;;;1.40;;
76127;SDS011;64873;50.102;14.434;2024-01-25T09:04:24;5.95;;;1.33;;
76127;SDS011;64873;50.102;14.434;2024-01-25T09:06:49;6.22;;;1.88;;
76127;SDS011;64873;50.102;14.434;2024-01-25T09:09:14;8.30;;;2.85;;
76127;SDS011;64873;50.102;14.434;2024-01-25T09:11:40;8.35;;;1.90;;
76127;SDS011;64873;50.102;14.434;2024-01-25T09:14:05;5.07;;;1.20;;
76127;SDS011;64873;50.102;14.434;2024-01-25T09:16:31;4.13;;;1.15;;
76127;SDS011;64873;50.102;14.434;2024-01-25T09:18:56;4.20;;;1.08;;
76127;SDS011;64873;50.102;14.434;2024-01-25T09:21:21;8.63;;;1.42;;
76127;SDS011;64873;50.102;14.434;2024-01-25T09:23:47;2.33;;;0.63;;
76127;SDS011;64873;50.102;14.434;2024-01-25T09:26:12;5.78;;;1.02;;
76127;SDS011;64873;50.102;14.434;2024-01-25T09:28:37;6.90;;;1.48;;
76127;SDS011;64873;50.102;14.434;2024-01-25T09:31:03;7.75;;;1.55;;
76127;SDS011;64873;50.102;14.434;2024-01-25T09:33:29;9.93;;;1.73;;
76127;SDS011;64873;50.102;14.434;2024-01-25T09:35:55;15.20;;;1.08;;
76127;SDS011;64873;50.102;14.434;2024-01-25T09:38:21;5.30;;;2.03;;
76127;SDS011;64873;50.102;14.434;2024-01-25T09:40:47;6.55;;;1.15;;
76127;SDS011;64873;50.102;14.434;2024-01-25T09:43:13;9.13;;;1.55;;
76127;SDS011;64873;50.102;14.434;2024-01-25T09:45:39;8.68;;;1.25;;
76127;SDS011;64873;50.102;14.434;2024-01-25T09:48:06;6.60;;;1.35;;
76127;SDS011;64873;50.102;14.434;2024-01-25T09:50:32;5.88;;;1.30;;
76127;SDS011;64873;50.102;14.434;2024-01-25T09:52:58;2.53;;;0.90;;
76127;SDS011;64873;50.102;14.434;2024-01-25T09:55:25;3.90;;;1.30;;
76127;SDS011;64873;50.102;14.434;2024-01-25T09:57:54;9.02;;;1.15;;
76127;SDS011;64873;50.102;14.434;2024-01-25T10:00:22;5.18;;;1.45;;
76127;SDS011;64873;50.102;14.434;2024-01-25T10:02:48;3.78;;;0.88;;
76127;SDS011;64873;50.102;14.434;2024-01-25T10:05:15;4.70;;;1.48;;
76127;SDS011;64873;50.102;14.434;2024-01-25T10:07:42;3.60;;;1.33;;
76127;SDS011;64873;50.102;14.434;2024-01-25T10:10:09;26.70;;;1.50;;
76127;SDS011;64873;50.102;14.434;2024-01-25T10:12:36;2.72;;;0.60;;
76127;SDS011;64873;50.102;14.434;2024-01-25T10:15:03;7.28;;;1.33;;
76127;SDS011;64873;50.102;14.434;2024-01-25T10:17:29;5.47;;;1.70;;
76127;SDS011;64873;50.102;14.434;2024-01-25T10:19:55;2.17;;;0.88;;
76127;SDS011;64873;50.102;14.434;2024-01-25T10:22:21;8.65;;;1.55;;
76127;SDS011;64873;50.102;14.434;2024-01-25T10:24:47;6.82;;;1.23;;
76127;SDS011;64873;50.102;14.434;2024-01-25T10:27:15;4.07;;;1.40;;
76127;SDS011;64873;50.102;14.434;2024-01-25T10:29:41;5.43;;;1.50;;
76127;SDS011;64873;50.102;14.434;2024-01-25T10:32:06;3.78;;;1.00;;
76127;SDS011;64873;50.102;14.434;2024-01-25T10:34:35;3.40;;;0.93;;
76127;SDS011;64873;50.102;14.434;2024-01-25T10:37:02;1.58;;;0.55;;
76127;SDS011;64873;50.102;14.434;2024-01-25T10:39:30;6.50;;;1.02;;
76127;SDS011;64873;50.102;14.434;2024-01-25T10:41:56;4.40;;;1.13;;
76127;SDS011;64873;50.102;14.434;2024-01-25T10:44:24;5.13;;;1.08;;
76127;SDS011;64873;50.102;14.434;2024-01-25T10:46:49;4.40;;;1.00;;
76127;SDS011;64873;50.102;14.434;2024-01-25T10:49:15;3.90;;;1.00;;
76127;SDS011;64873;50.102;14.434;2024-01-25T10:51:43;2.78;;;0.90;;
76127;SDS011;64873;50.102;14.434;2024-01-25T10:54:10;2.78;;;0.77;;
76127;SDS011;64873;50.102;14.434;2024-01-25T10:56:43;5.32;;;1.20;;
76127;SDS011;64873;50.102;14.434;2024-01-25T10:59:12;2.53;;;0.85;;
76127;SDS011;64873;50.102;14.434;2024-01-25T11:01:38;6.60;;;1.13;;
76127;SDS011;64873;50.102;14.434;2024-01-25T11:04:12;3.70;;;1.55;;
76127;SDS011;64873;50.102;14.434;2024-01-25T11:06:39;6.65;;;1.10;;
76127;SDS011;64873;50.102;14.434;2024-01-25T11:09:04;4.22;;;0.93;;
76127;SDS011;64873;50.102;14.434;2024-01-25T11:11:35;3.92;;;1.60;;
76127;SDS011;64873;50.102;14.434;2024-01-25T11:14:01;9.27;;;1.45;;
76127;SDS011;64873;50.102;14.434;2024-01-25T11:16:31;8.07;;;1.95;;
76127;SDS011;64873;50.102;14.434;2024-01-25T11:18:59;4.78;;;1.13;;
76127;SDS011;64873;50.102;14.434;2024-01-25T11:21:41;3.22;;;1.05;;
76127;SDS011;64873;50.102;14.434;2024-01-25T11:24:19;6.57;;;1.10;;
76127;SDS011;64873;50.102;14.434;2024-01-25T11:26:46;4.65;;;1.35;;
76127;SDS011;64873;50.102;14.434;2024-01-25T11:29:13;4.35;;;1.30;;
76127;SDS011;64873;50.102;14.434;2024-01-25T11:31:41;6.90;;;1.33;;
76127;SDS011;64873;50.102;14.434;2024-01-25T11:34:09;4.95;;;1.58;;
76127;SDS011;64873;50.102;14.434;2024-01-25T11:36:36;3.85;;;1.27;;
76127;SDS011;64873;50.102;14.434;2024-01-25T11:39:01;3.38;;;0.90;;
76127;SDS011;64873;50.102;14.434;2024-01-25T11:41:27;2.17;;;0.90;;
76127;SDS011;64873;50.102;14.434;2024-01-25T11:43:53;4.90;;;1.40;;
76127;SDS011;64873;50.102;14.434;2024-01-25T11:46:18;4.32;;;1.15;;
76127;SDS011;64873;50.102;14.434;2024-01-25T11:48:44;4.75;;;1.00;;
76127;SDS011;64873;50.102;14.434;2024-01-25T11:51:09;10.18;;;1.45;;
76127;SDS011;64873;50.102;14.434;2024-01-25T11:53:38;5.38;;;1.35;;
76127;SDS011;64873;50.102;14.434;2024-01-25T11:56:04;3.13;;;0.85;;
76127;SDS011;64873;50.102;14.434;2024-01-25T11:58:33;1.98;;;0.85;;
76127;SDS011;64873;50.102;14.434;2024-01-25T12:00:59;4.50;;;1.13;;
76127;SDS011;64873;50.102;14.434;2024-01-25T12:03:25;8.45;;;1.35;;
76127;SDS011;64873;50.102;14.434;2024-01-25T12:05:51;3.97;;;1.00;;
76127;SDS011;64873;50.102;14.434;2024-01-25T12:08:17;2.55;;;1.00;;
76127;SDS011;64873;50.102;14.434;2024-01-25T12:10:42;2.63;;;0.88;;
76127;SDS011;64873;50.102;14.434;2024-01-25T12:13:08;3.38;;;1.00;;
76127;SDS011;64873;50.102;14.434;2024-01-25T12:15:34;6.18;;;0.90;;
76127;SDS011;64873;50.102;14.434;2024-01-25T12:18:00;7.25;;;1.00;;
76127;SDS011;64873;50.102;14.434;2024-01-25T12:20:26;7.88;;;1.17;;
76127;SDS011;64873;50.102;14.434;2024-01-25T12:22:53;4.28;;;0.95;;
76127;SDS011;64873;50.102;14.434;2024-01-25T12:25:19;3.83;;;1.13;;
76127;SDS011;64873;50.102;14.434;2024-01-25T12:27:44;5.28;;;1.38;;
76127;SDS011;64873;50.102;14.434;2024-01-25T12:30:11;5.80;;;1.27;;
76127;SDS011;64873;50.102;14.434;2024-01-25T12:32:37;3.78;;;0.82;;
76127;SDS011;64873;50.102;14.434;2024-01-25T12:35:02;7.38;;;1.30;;
76127;SDS011;64873;50.102;14.434;2024-01-25T12:37:29;8.63;;;1.15;;
76127;SDS011;64873;50.102;14.434;2024-01-25T12:39:54;6.15;;;1.20;;
76127;SDS011;64873;50.102;14.434;2024-01-25T12:42:20;1.83;;;0.70;;
76127;SDS011;64873;50.102;14.434;2024-01-25T12:44:46;6.22;;;0.90;;
76127;SDS011;64873;50.102;14.434;2024-01-25T12:47:12;9.23;;;1.42;;
76127;SDS011;64873;50.102;14.434;2024-01-25T12:49:41;2.53;;;0.90;;
76127;SDS011;64873;50.102;14.434;2024-01-25T12:52:11;5.22;;;0.95;;
76127;SDS011;64873;50.102;14.434;2024-01-25T12:54:38;5.90;;;1.05;;
76127;SDS011;64873;50.102;14.434;2024-01-25T12:57:04;6.20;;;1.20;;
76127;SDS011;64873;50.102;14.434;2024-01-25T12:59:34;3.60;;;0.80;;
76127;SDS011;64873;50.102;14.434;2024-01-25T13:02:00;5.22;;;1.00;;
76127;SDS011;64873;50.102;14.434;2024-01-25T13:04:26;3.63;;;0.95;;
76127;SDS011;64873;50.102;14.434;2024-01-25T13:06:52;5.53;;;0.68;;
76127;SDS011;64873;50.102;14.434;2024-01-25T13:09:22;4.30;;;1.27;;
76127;SDS011;64873;50.102;14.434;2024-01-25T13:11:48;4.03;;;1.08;;
76127;SDS011;64873;50.102;14.434;2024-01-25T13:14:13;5.00;;;1.17;;
76127;SDS011;64873;50.102;14.434;2024-01-25T13:16:39;7.85;;;1.40;;
76127;SDS011;64873;50.102;14.434;2024-01-25T13:19:05;4.43;;;1.05;;
76127;SDS011;64873;50.102;14.434;2024-01-25T13:21:33;3.60;;;0.80;;
76127;SDS011;64873;50.102;14.434;2024-01-25T13:23:59;2.88;;;0.60;;
76127;SDS011;64873;50.102;14.434;2024-01-25T13:26:25;5.13;;;1.20;;
76127;SDS011;64873;50.102;14.434;2024-01-25T13:28:50;8.50;;;1.20;;
76127;SDS011;64873;50.102;14.434;2024-01-25T13:31:16;7.82;;;1.00;;
76127;SDS011;64873;50.102;14.434;2024-01-25T13:33:41;1.95;;;0.90;;
76127;SDS011;64873;50.102;14.434;2024-01-25T13:36:07;7.38;;;1.17;;
76127;SDS011;64873;50.102;14.434;2024-01-25T13:38:34;5.93;;;1.15;;
76127;SDS011;64873;50.102;14.434;2024-01-25T13:41:00;11.30;;;1.33;;
76127;SDS011;64873;50.102;14.434;2024-01-25T13:43:25;5.05;;;1.20;;
76127;SDS011;64873;50.102;14.434;2024-01-25T13:45:51;5.60;;;1.40;;
76127;SDS011;64873;50.102;14.434;2024-01-25T13:48:16;7.72;;;1.30;;
76127;SDS011;64873;50.102;14.434;2024-01-25T13:50:44;6.93;;;1.30;;
76127;SDS011;64873;50.102;14.434;2024-01-25T13:53:09;2.13;;;0.80;;
76127;SDS011;64873;50.102;14.434;2024-01-25T13:55:34;5.53;;;0.93;;
76127;SDS011;64873;50.102;14.434;2024-01-25T13:58:00;5.50;;;0.80;;
76127;SDS011;64873;50.102;14.434;2024-01-25T14:00:26;2.08;;;0.65;;
76127;SDS011;64873;50.102;14.434;2024-01-25T14:02:52;4.03;;;0.88;;
76127;SDS011;64873;50.102;14.434;2024-01-25T14:05:18;4.15;;;0.80;;
76127;SDS011;64873;50.102;14.434;2024-01-25T14:07:43;7.07;;;1.20;;
76127;SDS011;64873;50.102;14.434;2024-01-25T14:10:09;5.97;;;1.10;;
76127;SDS011;64873;50.102;14.434;2024-01-25T14:12:34;1.25;;;0.60;;
76127;SDS011;64873;50.102;14.434;2024-01-25T14:15:00;3.13;;;0.85;;
76127;SDS011;64873;50.102;14.434;2024-01-25T14:17:25;7.30;;;1.90;;
76127;SDS011;64873;50.102;14.434;2024-01-25T14:19:51;4.55;;;1.40;;
76127;SDS011;64873;50.102;14.434;2024-01-25T14:22:18;5.80;;;1.30;;